Time,TemperatureF,DewpointF,PressureIn,WindDirection,WindDirectionDegrees,WindSpeedMPH,WindSpeedGustMPH,Humidity,HourlyPrecipIn,Conditions,Clouds,dailyrainin,SoftwareType,DateUTC
2013-07-15 00:08:00,79.6,76.0,30.23,ESE,103,3.0,3.0,88,0.00,,,0.00,weatherlink.com 1.10,2013-07-15 04:08:00,
2013-07-15 00:23:00,79.8,76.0,30.23,ESE,113,1.0,6.0,88,0.00,,,0.00,weatherlink.com 1.10,2013-07-15 04:23:00,
2013-07-15 00:38:00,79.4,76.0,30.23,NE,52,0.0,4.0,89,0.00,,,0.00,weatherlink.com 1.10,2013-07-15 04:38:00,
2013-07-15 00:53:00,79.4,76.0,30.23,SSE,156,0.0,6.0,90,0.00,,,0.00,weatherlink.com 1.10,2013-07-15 04:53:00,
2013-07-15 01:08:00,79.4,76.0,30.23,ENE,62,2.0,5.0,90,0.00,,,0.00,weatherlink.com 1.10,2013-07-15 05:08:00,
2013-07-15 01:23:00,79.4,76.0,30.23,East,94,0.0,6.0,90,0.00,,,0.00,weatherlink.com 1.10,2013-07-15 05:23:00,
2013-07-15 01:38:00,79.4,76.0,30.23,ESE,111,2.0,6.0,90,0.00,,,0.00,weatherlink.com 1.10,2013-07-15 05:38:00,
2013-07-15 01:53:00,79.4,76.0,30.22,NE,49,0.0,5.0,89,0.00,,,0.00,weatherlink.com 1.10,2013-07-15 05:53:00,
2013-07-15 02:08:00,79.5,76.0,30.22,ESE,118,4.0,11.0,89,0.00,,,0.00,weatherlink.com 1.10,2013-07-15 06:08:00,
2013-07-15 02:23:00,79.4,76.0,30.22,East,101,0.0,5.0,89,0.00,,,0.00,weatherlink.com 1.10,2013-07-15 06:23:00,
2013-07-15 02:38:00,79.4,76.0,30.22,East,99,0.0,6.0,88,0.00,,,0.00,weatherlink.com 1.10,2013-07-15 06:38:00,
2013-07-15 02:53:00,79.3,76.0,30.22,East,95,1.0,6.0,89,0.00,,,0.00,weatherlink.com 1.10,2013-07-15 06:53:00,
2013-07-15 03:08:00,79.4,76.0,30.21,ENE,58,5.0,6.0,89,0.00,,,0.00,weatherlink.com 1.10,2013-07-15 07:08:00,
2013-07-15 03:23:00,78.9,76.0,30.21,ENE,63,0.0,5.0,90,0.00,,,0.00,weatherlink.com 1.10,2013-07-15 07:23:00,
2013-07-15 03:38:00,78.0,76.0,30.21,ENE,66,2.0,6.0,92,0.00,,,0.00,weatherlink.com 1.10,2013-07-15 07:38:00,
2013-07-15 03:54:00,77.4,75.0,30.21,North,359,2.0,4.0,93,0.00,,,0.00,weatherlink.com 1.10,2013-07-15 07:54:00,
2013-07-15 04:09:00,77.1,75.0,30.21,NE,51,0.0,4.0,94,0.00,,,0.00,weatherlink.com 1.10,2013-07-15 08:09:00,
2013-07-15 04:24:00,76.8,75.0,30.21,NNE,14,0.0,2.0,95,0.00,,,0.00,weatherlink.com 1.10,2013-07-15 08:24:00,
2013-07-15 04:39:00,76.7,75.0,30.21,NE,40,0.0,2.0,95,0.00,,,0.00,weatherlink.com 1.10,2013-07-15 08:39:00,
2013-07-15 04:54:00,76.8,75.0,30.21,ESE,107,0.0,3.0,95,0.00,,,0.00,weatherlink.com 1.10,2013-07-15 08:54:00,
2013-07-15 05:09:00,77.1,76.0,30.21,NNW,347,1.0,3.0,95,0.00,,,0.00,weatherlink.com 1.10,2013-07-15 09:09:00,
2013-07-15 05:24:00,77.1,76.0,30.22,NNE,14,0.0,2.0,95,0.00,,,0.00,weatherlink.com 1.10,2013-07-15 09:24:00,
2013-07-15 05:39:00,77.0,76.0,30.22,NNE,23,0.0,1.0,95,0.00,,,0.00,weatherlink.com 1.10,2013-07-15 09:39:00,
2013-07-15 05:54:00,76.8,75.0,30.22,NNE,18,0.0,1.0,95,0.00,,,0.00,weatherlink.com 1.10,2013-07-15 09:54:00,
2013-07-15 06:09:00,76.9,75.0,30.23,NNE,14,1.0,1.0,95,0.00,,,0.00,weatherlink.com 1.10,2013-07-15 10:09:00,
2013-07-15 06:24:00,76.6,75.0,30.23,North,357,0.0,3.0,95,0.00,,,0.00,weatherlink.com 1.10,2013-07-15 10:24:00,
2013-07-15 06:39:00,76.4,75.0,30.23,NE,42,1.0,2.0,95,0.00,,,0.00,weatherlink.com 1.10,2013-07-15 10:39:00,
2013-07-15 06:54:00,76.5,75.0,30.23,NE,37,1.0,3.0,96,0.00,,,0.00,weatherlink.com 1.10,2013-07-15 10:54:00,
2013-07-15 07:09:00,76.5,75.0,30.24,NNW,343,0.0,4.0,96,0.00,,,0.00,weatherlink.com 1.10,2013-07-15 11:09:00,
2013-07-15 07:24:00,76.7,76.0,30.24,NE,40,3.0,5.0,96,0.00,,,0.00,weatherlink.com 1.10,2013-07-15 11:24:00,
2013-07-15 07:39:00,77.2,76.0,30.24,North,2,2.0,5.0,95,0.00,,,0.00,weatherlink.com 1.10,2013-07-15 11:39:00,
2013-07-15 07:54:00,77.9,76.0,30.24,East,85,0.0,4.0,94,0.00,,,0.00,weatherlink.com 1.10,2013-07-15 11:54:00,
2013-07-15 08:09:00,78.1,76.0,30.24,North,2,1.0,7.0,93,0.00,,,0.00,weatherlink.com 1.10,2013-07-15 12:09:00,
2013-07-15 08:24:00,79.0,77.0,30.24,ENE,68,4.0,7.0,92,0.00,,,0.00,weatherlink.com 1.10,2013-07-15 12:24:00,
2013-07-15 08:39:00,79.0,77.0,30.25,NNW,336,2.0,7.0,92,0.00,,,0.00,weatherlink.com 1.10,2013-07-15 12:39:00,
2013-07-15 08:54:00,79.7,78.0,30.25,North,2,0.0,6.0,93,0.00,,,0.00,weatherlink.com 1.10,2013-07-15 12:54:00,
2013-07-15 09:09:00,81.6,79.0,30.25,East,85,4.0,4.0,91,0.00,,,0.00,weatherlink.com 1.10,2013-07-15 13:09:00,
2013-07-15 09:24:00,83.2,78.0,30.25,SSE,153,6.0,9.0,83,0.00,,,0.00,weatherlink.com 1.10,2013-07-15 13:24:00,
2013-07-15 09:39:00,82.9,77.0,30.25,East,81,2.0,10.0,83,0.00,,,0.00,weatherlink.com 1.10,2013-07-15 13:39:00,
2013-07-15 09:54:00,82.7,77.0,30.25,NE,55,2.0,10.0,83,0.00,,,0.00,weatherlink.com 1.10,2013-07-15 13:54:00,
2013-07-15 10:09:00,83.9,78.0,30.25,ENE,68,4.0,11.0,81,0.00,,,0.00,weatherlink.com 1.10,2013-07-15 14:09:00,
2013-07-15 10:24:00,83.7,77.0,30.25,ESE,107,8.0,10.0,80,0.00,,,0.00,weatherlink.com 1.10,2013-07-15 14:24:00,
2013-07-15 10:39:00,84.0,77.0,30.25,North,355,2.0,9.0,79,0.00,,,0.00,weatherlink.com 1.10,2013-07-15 14:39:00,
2013-07-15 10:54:00,84.4,76.0,30.26,ENE,76,7.0,11.0,76,0.00,,,0.00,weatherlink.com 1.10,2013-07-15 14:54:00,
2013-07-15 11:09:00,84.5,77.0,30.26,ESE,123,2.0,11.0,77,0.00,,,0.00,weatherlink.com 1.10,2013-07-15 15:09:00,
2013-07-15 11:24:00,84.1,77.0,30.26,NE,51,4.0,11.0,78,0.00,,,0.00,weatherlink.com 1.10,2013-07-15 15:24:00,
2013-07-15 11:54:00,85.2,77.0,30.27,ESE,113,4.0,12.0,76,0.00,,,0.00,weatherlink.com 1.10,2013-07-15 15:54:00,
2013-07-15 12:09:00,85.2,77.0,30.27,East,87,3.0,10.0,76,0.00,,,0.00,weatherlink.com 1.10,2013-07-15 16:09:00,
2013-07-15 12:24:00,85.4,77.0,30.27,SE,144,3.0,10.0,75,0.00,,,0.00,weatherlink.com 1.10,2013-07-15 16:24:00,
2013-07-15 12:39:00,85.7,77.0,30.26,ESE,123,1.0,11.0,75,0.00,,,0.00,weatherlink.com 1.10,2013-07-15 16:39:00,
2013-07-15 12:54:00,86.0,77.0,30.27,ESE,104,8.0,10.0,74,0.00,,,0.00,weatherlink.com 1.10,2013-07-15 16:54:00,
2013-07-15 13:09:00,86.0,77.0,30.26,ESE,104,2.0,11.0,75,0.00,,,0.00,weatherlink.com 1.10,2013-07-15 17:09:00,
2013-07-15 13:24:00,85.6,77.0,30.26,ENE,68,4.0,11.0,75,0.00,,,0.00,weatherlink.com 1.10,2013-07-15 17:24:00,
2013-07-15 13:39:00,85.5,77.0,30.25,ESE,111,4.0,12.0,76,0.00,,,0.00,weatherlink.com 1.10,2013-07-15 17:39:00,
2013-07-15 13:54:00,86.5,78.0,30.25,SE,133,4.0,7.0,75,0.00,,,0.00,weatherlink.com 1.10,2013-07-15 17:54:00,
2013-07-15 14:09:00,86.3,78.0,30.25,East,82,4.0,11.0,76,0.00,,,0.00,weatherlink.com 1.10,2013-07-15 18:09:00,
2013-07-15 14:24:00,85.6,77.0,30.25,ENE,71,4.0,10.0,75,0.00,,,0.00,weatherlink.com 1.10,2013-07-15 18:24:00,
2013-07-15 14:40:00,86.2,77.0,30.25,ENE,68,1.0,10.0,75,0.00,,,0.00,weatherlink.com 1.10,2013-07-15 18:40:00,
2013-07-15 14:55:00,86.0,77.0,30.24,SSE,153,4.0,12.0,75,0.00,,,0.00,weatherlink.com 1.10,2013-07-15 18:55:00,
2013-07-15 15:10:00,86.5,77.0,30.24,SE,127,9.0,9.0,74,0.00,,,0.00,weatherlink.com 1.10,2013-07-15 19:10:00,
2013-07-15 15:25:00,85.6,76.0,30.24,East,99,5.0,10.0,73,0.00,,,0.00,weatherlink.com 1.10,2013-07-15 19:25:00,
2013-07-15 15:40:00,85.8,77.0,30.24,ESE,117,5.0,8.0,76,0.00,,,0.00,weatherlink.com 1.10,2013-07-15 19:40:00,
2013-07-15 16:10:00,86.0,77.0,30.23,ESE,117,4.0,12.0,74,0.00,,,0.00,weatherlink.com 1.10,2013-07-15 20:10:00,
2013-07-15 16:40:00,85.4,77.0,30.24,East,88,4.0,9.0,76,0.00,,,0.00,weatherlink.com 1.10,2013-07-15 20:40:00,
2013-07-15 16:55:00,85.4,77.0,30.23,East,82,3.0,8.0,77,0.00,,,0.00,weatherlink.com 1.10,2013-07-15 20:55:00,
2013-07-15 17:10:00,84.9,77.0,30.23,SE,146,3.0,7.0,77,0.00,,,0.00,weatherlink.com 1.10,2013-07-15 21:10:00,
2013-07-15 17:25:00,85.0,77.0,30.23,East,101,7.0,8.0,77,0.00,,,0.00,weatherlink.com 1.10,2013-07-15 21:25:00,
2013-07-15 17:40:00,85.0,77.0,30.22,East,92,5.0,8.0,77,0.00,,,0.00,weatherlink.com 1.10,2013-07-15 21:40:00,
2013-07-15 17:55:00,84.4,77.0,30.22,ESE,118,1.0,8.0,77,0.00,,,0.00,weatherlink.com 1.10,2013-07-15 21:55:00,
2013-07-15 18:10:00,83.6,77.0,30.22,East,88,5.0,9.0,80,0.00,,,0.00,weatherlink.com 1.10,2013-07-15 22:10:00,
2013-07-15 18:25:00,83.9,78.0,30.22,ESE,116,4.0,9.0,81,0.00,,,0.00,weatherlink.com 1.10,2013-07-15 22:25:00,
2013-07-15 19:10:00,82.6,77.0,30.23,East,93,3.0,8.0,83,0.00,,,0.00,weatherlink.com 1.10,2013-07-15 23:10:00,
2013-07-15 19:40:00,81.7,77.0,30.23,ESE,106,1.0,8.0,84,0.00,,,0.00,weatherlink.com 1.10,2013-07-15 23:40:00,
2013-07-15 19:55:00,81.6,77.0,30.23,ESE,117,2.0,6.0,85,0.00,,,0.00,weatherlink.com 1.10,2013-07-15 23:55:00,
2013-07-15 20:40:00,80.3,77.0,30.23,SE,143,0.0,4.0,88,0.00,,,0.00,weatherlink.com 1.10,2013-07-16 00:40:00,
2013-07-15 21:10:00,79.4,76.0,30.23,SE,140,0.0,0.0,90,0.00,,,0.00,weatherlink.com 1.10,2013-07-16 01:10:00,
2013-07-15 21:25:00,79.1,76.0,30.24,ESE,114,0.0,2.0,90,0.00,,,0.00,weatherlink.com 1.10,2013-07-16 01:25:00,
2013-07-15 21:40:00,79.0,76.0,30.24,East,94,0.0,1.0,90,0.00,,,0.00,weatherlink.com 1.10,2013-07-16 01:40:00,
2013-07-15 21:55:00,78.8,76.0,30.24,NE,55,0.0,1.0,91,0.00,,,0.00,weatherlink.com 1.10,2013-07-16 01:55:00,
2013-07-15 22:10:00,78.9,76.0,30.24,SE,141,2.0,4.0,91,0.00,,,0.00,weatherlink.com 1.10,2013-07-16 02:10:00,
2013-07-15 22:40:00,78.8,76.0,30.25,SE,128,2.0,2.0,91,0.00,,,0.00,weatherlink.com 1.10,2013-07-16 02:40:00,
2013-07-15 22:55:00,78.9,76.0,30.25,ESE,115,0.0,0.0,91,0.00,,,0.00,weatherlink.com 1.10,2013-07-16 02:55:00,
2013-07-15 23:10:00,78.8,76.0,30.25,East,82,0.0,1.0,91,0.00,,,0.00,weatherlink.com 1.10,2013-07-16 03:10:00,
2013-07-15 23:25:00,78.8,76.0,30.25,East,97,0.0,0.0,91,0.00,,,0.00,weatherlink.com 1.10,2013-07-16 03:25:00,
2013-07-15 23:40:00,78.5,76.0,30.25,East,97,0.0,0.0,92,0.00,,,0.00,weatherlink.com 1.10,2013-07-16 03:40:00,